sensor_id;sensor_type;location;lat;lon;timestamp;P1;durP1;ratioP1;P2;durP2;ratioP2
19235;SDS011;9752;54.270;12.470;2023-12-20T00:04:43;6.40;;;5.33;;
19235;SDS011;9752;54.270;12.470;2023-12-20T00:09:46;11.33;;;5.10;;
19235;SDS011;9752;54.270;12.470;2023-12-20T00:14:47;17.43;;;6.90;;
19235;SDS011;9752;54.270;12.470;2023-12-20T00:19:49;9.47;;;5.37;;
19235;SDS011;9752;54.270;12.470;2023-12-20T00:24:52;10.97;;;6.07;;
19235;SDS011;9752;54.270;12.470;2023-12-20T00:29:54;8.57;;;5.40;;
19235;SDS011;9752;54.270;12.470;2023-12-20T00:34:55;10.70;;;6.13;;
19235;SDS011;9752;54.270;12.470;2023-12-20T00:39:58;13.97;;;6.40;;
19235;SDS011;9752;54.270;12.470;2023-12-20T00:45:00;8.93;;;6.03;;
19235;SDS011;9752;54.270;12.470;2023-12-20T00:50:02;11.10;;;6.27;;
19235;SDS011;9752;54.270;12.470;2023-12-20T00:55:06;9.50;;;6.80;;
19235;SDS011;9752;54.270;12.470;2023-12-20T01:00:09;8.43;;;6.30;;
19235;SDS011;9752;54.270;12.470;2023-12-20T01:05:11;13.90;;;5.93;;
19235;SDS011;9752;54.270;12.470;2023-12-20T01:10:15;11.23;;;6.37;;
19235;SDS011;9752;54.270;12.470;2023-12-20T01:15:17;16.30;;;7.00;;
19235;SDS011;9752;54.270;12.470;2023-12-20T01:20:19;17.73;;;6.20;;
19235;SDS011;9752;54.270;12.470;2023-12-20T01:25:22;9.87;;;5.70;;
19235;SDS011;9752;54.270;12.470;2023-12-20T01:30:24;9.00;;;6.90;;
19235;SDS011;9752;54.270;12.470;2023-12-20T01:35:25;15.03;;;5.73;;
19235;SDS011;9752;54.270;12.470;2023-12-20T01:40:28;13.60;;;6.67;;
19235;SDS011;9752;54.270;12.470;2023-12-20T01:45:30;9.77;;;6.20;;
19235;SDS011;9752;54.270;12.470;2023-12-20T01:50:32;14.47;;;6.97;;
19235;SDS011;9752;54.270;12.470;2023-12-20T01:55:38;8.20;;;6.00;;
19235;SDS011;9752;54.270;12.470;2023-12-20T02:00:41;10.57;;;5.80;;
19235;SDS011;9752;54.270;12.470;2023-12-20T02:05:43;11.50;;;7.23;;
19235;SDS011;9752;54.270;12.470;2023-12-20T02:10:48;15.53;;;7.50;;
19235;SDS011;9752;54.270;12.470;2023-12-20T02:15:49;14.93;;;7.53;;
19235;SDS011;9752;54.270;12.470;2023-12-20T02:20:51;10.57;;;6.47;;
19235;SDS011;9752;54.270;12.470;2023-12-20T02:25:55;13.67;;;7.07;;
19235;SDS011;9752;54.270;12.470;2023-12-20T02:30:56;10.10;;;6.40;;
19235;SDS011;9752;54.270;12.470;2023-12-20T02:35:58;13.37;;;6.20;;
19235;SDS011;9752;54.270;12.470;2023-12-20T02:41:01;13.83;;;6.67;;
19235;SDS011;9752;54.270;12.470;2023-12-20T02:46:03;10.90;;;7.07;;
19235;SDS011;9752;54.270;12.470;2023-12-20T02:51:05;18.27;;;7.33;;
19235;SDS011;9752;54.270;12.470;2023-12-20T02:56:08;12.50;;;7.20;;
19235;SDS011;9752;54.270;12.470;2023-12-20T03:01:10;10.33;;;7.13;;
19235;SDS011;9752;54.270;12.470;2023-12-20T03:06:15;11.83;;;8.00;;
19235;SDS011;9752;54.270;12.470;2023-12-20T03:11:20;18.60;;;6.73;;
19235;SDS011;9752;54.270;12.470;2023-12-20T03:16:22;15.17;;;7.57;;
19235;SDS011;9752;54.270;12.470;2023-12-20T03:21:24;11.93;;;7.00;;
19235;SDS011;9752;54.270;12.470;2023-12-20T03:26:27;26.90;;;7.80;;
19235;SDS011;9752;54.270;12.470;2023-12-20T03:31:28;15.20;;;7.13;;
19235;SDS011;9752;54.270;12.470;2023-12-20T03:36:30;17.63;;;8.27;;
19235;SDS011;9752;54.270;12.470;2023-12-20T03:41:33;22.20;;;8.00;;
19235;SDS011;9752;54.270;12.470;2023-12-20T03:46:35;18.80;;;7.50;;
19235;SDS011;9752;54.270;12.470;2023-12-20T03:51:36;17.77;;;7.97;;
19235;SDS011;9752;54.270;12.470;2023-12-20T03:56:41;14.47;;;8.50;;
19235;SDS011;9752;54.270;12.470;2023-12-20T04:01:42;17.47;;;7.53;;
19235;SDS011;9752;54.270;12.470;2023-12-20T04:06:44;18.57;;;9.33;;
19235;SDS011;9752;54.270;12.470;2023-12-20T04:11:47;21.13;;;8.20;;
19235;SDS011;9752;54.270;12.470;2023-12-20T04:16:49;26.77;;;8.93;;
19235;SDS011;9752;54.270;12.470;2023-12-20T04:21:50;24.43;;;7.33;;
19235;SDS011;9752;54.270;12.470;2023-12-20T04:26:53;13.73;;;7.97;;
19235;SDS011;9752;54.270;12.470;2023-12-20T04:31:55;19.90;;;7.87;;
19235;SDS011;9752;54.270;12.470;2023-12-20T04:36:57;12.73;;;8.17;;
19235;SDS011;9752;54.270;12.470;2023-12-20T04:42:00;13.63;;;7.60;;
19235;SDS011;9752;54.270;12.470;2023-12-20T04:47:02;19.80;;;9.07;;
19235;SDS011;9752;54.270;12.470;2023-12-20T04:52:04;16.73;;;7.80;;
19235;SDS011;9752;54.270;12.470;2023-12-20T04:57:07;18.30;;;7.27;;
19235;SDS011;9752;54.270;12.470;2023-12-20T05:02:09;23.33;;;8.33;;
19235;SDS011;9752;54.270;12.470;2023-12-20T05:07:11;21.20;;;8.90;;
19235;SDS011;9752;54.270;12.470;2023-12-20T05:12:13;23.20;;;7.33;;
19235;SDS011;9752;54.270;12.470;2023-12-20T05:17:15;13.43;;;8.00;;
19235;SDS011;9752;54.270;12.470;2023-12-20T05:22:17;9.50;;;6.93;;
19235;SDS011;9752;54.270;12.470;2023-12-20T05:27:21;14.80;;;6.80;;
19235;SDS011;9752;54.270;12.470;2023-12-20T05:32:22;16.60;;;7.23;;
19235;SDS011;9752;54.270;12.470;2023-12-20T05:37:24;15.53;;;7.03;;
19235;SDS011;9752;54.270;12.470;2023-12-20T05:42:27;16.87;;;8.13;;
19235;SDS011;9752;54.270;12.470;2023-12-20T05:47:29;18.77;;;7.70;;
19235;SDS011;9752;54.270;12.470;2023-12-20T05:52:30;22.43;;;8.40;;
19235;SDS011;9752;54.270;12.470;2023-12-20T05:57:33;25.27;;;7.43;;
19235;SDS011;9752;54.270;12.470;2023-12-20T06:02:35;17.90;;;8.63;;
19235;SDS011;9752;54.270;12.470;2023-12-20T06:07:37;15.07;;;7.60;;
19235;SDS011;9752;54.270;12.470;2023-12-20T06:12:40;16.63;;;6.70;;
19235;SDS011;9752;54.270;12.470;2023-12-20T06:17:42;17.40;;;7.67;;
19235;SDS011;9752;54.270;12.470;2023-12-20T06:22:44;14.57;;;7.03;;
19235;SDS011;9752;54.270;12.470;2023-12-20T06:27:47;6.87;;;6.17;;
19235;SDS011;9752;54.270;12.470;2023-12-20T06:32:48;8.87;;;6.13;;
19235;SDS011;9752;54.270;12.470;2023-12-20T06:37:50;15.40;;;7.73;;
19235;SDS011;9752;54.270;12.470;2023-12-20T06:42:53;15.90;;;7.47;;
19235;SDS011;9752;54.270;12.470;2023-12-20T06:47:55;13.03;;;8.17;;
19235;SDS011;9752;54.270;12.470;2023-12-20T06:52:57;14.47;;;7.67;;
19235;SDS011;9752;54.270;12.470;2023-12-20T06:58:00;9.97;;;7.00;;
19235;SDS011;9752;54.270;12.470;2023-12-20T07:03:02;10.73;;;8.67;;
19235;SDS011;9752;54.270;12.470;2023-12-20T07:08:04;11.03;;;8.43;;
19235;SDS011;9752;54.270;12.470;2023-12-20T07:13:08;12.97;;;9.03;;
19235;SDS011;9752;54.270;12.470;2023-12-20T07:18:09;9.90;;;8.90;;
19235;SDS011;9752;54.270;12.470;2023-12-20T07:23:11;13.13;;;10.50;;
19235;SDS011;9752;54.270;12.470;2023-12-20T07:28:14;13.83;;;9.27;;
19235;SDS011;9752;54.270;12.470;2023-12-20T07:33:16;21.90;;;10.70;;
19235;SDS011;9752;54.270;12.470;2023-12-20T07:38:17;11.33;;;10.50;;
19235;SDS011;9752;54.270;12.470;2023-12-20T07:43:20;13.67;;;10.37;;
19235;SDS011;9752;54.270;12.470;2023-12-20T07:48:22;10.23;;;9.23;;
19235;SDS011;9752;54.270;12.470;2023-12-20T07:53:24;14.63;;;9.53;;
19235;SDS011;9752;54.270;12.470;2023-12-20T07:58:27;17.20;;;9.13;;
19235;SDS011;9752;54.270;12.470;2023-12-20T08:03:30;12.63;;;9.23;;
19235;SDS011;9752;54.270;12.470;2023-12-20T08:08:31;11.83;;;9.80;;
19235;SDS011;9752;54.270;12.470;2023-12-20T08:13:34;21.07;;;10.73;;
19235;SDS011;9752;54.270;12.470;2023-12-20T08:18:36;12.43;;;8.70;;
19235;SDS011;9752;54.270;12.470;2023-12-20T08:23:38;12.53;;;7.83;;
19235;SDS011;9752;54.270;12.470;2023-12-20T08:28:40;15.73;;;10.37;;
19235;SDS011;9752;54.270;12.470;2023-12-20T08:33:43;10.63;;;9.23;;
19235;SDS011;9752;54.270;12.470;2023-12-20T08:38:44;12.87;;;11.53;;
19235;SDS011;9752;54.270;12.470;2023-12-20T08:43:48;11.67;;;10.37;;
19235;SDS011;9752;54.270;12.470;2023-12-20T08:48:51;13.53;;;10.30;;
19235;SDS011;9752;54.270;12.470;2023-12-20T08:53:52;11.27;;;8.47;;
19235;SDS011;9752;54.270;12.470;2023-12-20T08:58:55;9.13;;;8.23;;
19235;SDS011;9752;54.270;12.470;2023-12-20T09:03:57;9.83;;;8.50;;
19235;SDS011;9752;54.270;12.470;2023-12-20T09:08:59;18.60;;;8.47;;
19235;SDS011;9752;54.270;12.470;2023-12-20T09:14:02;9.80;;;7.70;;
19235;SDS011;9752;54.270;12.470;2023-12-20T09:19:04;16.27;;;7.70;;
19235;SDS011;9752;54.270;12.470;2023-12-20T09:24:06;7.50;;;6.87;;
19235;SDS011;9752;54.270;12.470;2023-12-20T09:29:09;9.33;;;6.97;;
19235;SDS011;9752;54.270;12.470;2023-12-20T09:34:15;18.03;;;8.07;;
19235;SDS011;9752;54.270;12.470;2023-12-20T09:39:18;15.70;;;7.57;;
19235;SDS011;9752;54.270;12.470;2023-12-20T09:44:22;9.73;;;7.17;;
19235;SDS011;9752;54.270;12.470;2023-12-20T09:49:24;9.83;;;7.50;;
19235;SDS011;9752;54.270;12.470;2023-12-20T09:54:28;9.47;;;7.73;;
19235;SDS011;9752;54.270;12.470;2023-12-20T09:59:32;12.53;;;7.87;;
19235;SDS011;9752;54.270;12.470;2023-12-20T10:04:34;13.17;;;7.73;;
19235;SDS011;9752;54.270;12.470;2023-12-20T10:09:36;7.03;;;6.40;;
19235;SDS011;9752;54.270;12.470;2023-12-20T10:14:40;7.53;;;6.77;;
19235;SDS011;9752;54.270;12.470;2023-12-20T10:19:42;9.03;;;6.70;;
19235;SDS011;9752;54.270;12.470;2023-12-20T10:24:45;6.93;;;6.33;;
19235;SDS011;9752;54.270;12.470;2023-12-20T10:29:48;10.00;;;7.10;;
19235;SDS011;9752;54.270;12.470;2023-12-20T10:34:50;8.27;;;7.60;;
19235;SDS011;9752;54.270;12.470;2023-12-20T10:39:53;12.13;;;6.70;;
19235;SDS011;9752;54.270;12.470;2023-12-20T10:44:59;8.93;;;6.40;;
19235;SDS011;9752;54.270;12.470;2023-12-20T10:50:01;7.50;;;6.00;;
19235;SDS011;9752;54.270;12.470;2023-12-20T10:55:06;8.03;;;6.13;;
19235;SDS011;9752;54.270;12.470;2023-12-20T11:00:10;6.37;;;5.43;;
19235;SDS011;9752;54.270;12.470;2023-12-20T11:05:20;7.47;;;5.97;;
19235;SDS011;9752;54.270;12.470;2023-12-20T11:10:31;11.50;;;6.80;;
19235;SDS011;9752;54.270;12.470;2023-12-20T11:15:39;7.37;;;6.77;;
19235;SDS011;9752;54.270;12.470;2023-12-20T11:20:41;10.70;;;9.50;;
19235;SDS011;9752;54.270;12.470;2023-12-20T11:25:47;13.63;;;8.30;;
19235;SDS011;9752;54.270;12.470;2023-12-20T11:30:52;10.33;;;6.40;;
19235;SDS011;9752;54.270;12.470;2023-12-20T11:35:55;18.63;;;7.20;;
19235;SDS011;9752;54.270;12.470;2023-12-20T11:40:57;7.17;;;6.57;;
19235;SDS011;9752;54.270;12.470;2023-12-20T11:46:06;11.13;;;5.70;;
19235;SDS011;9752;54.270;12.470;2023-12-20T11:51:09;10.37;;;5.50;;
19235;SDS011;9752;54.270;12.470;2023-12-20T11:56:11;6.83;;;5.60;;
19235;SDS011;9752;54.270;12.470;2023-12-20T12:01:14;10.03;;;6.43;;
19235;SDS011;9752;54.270;12.470;2023-12-20T12:06:16;9.07;;;6.53;;
19235;SDS011;9752;54.270;12.470;2023-12-20T12:11:18;7.27;;;6.00;;
19235;SDS011;9752;54.270;12.470;2023-12-20T12:16:21;6.90;;;6.13;;
19235;SDS011;9752;54.270;12.470;2023-12-20T12:21:24;7.17;;;6.40;;
19235;SDS011;9752;54.270;12.470;2023-12-20T12:26:26;8.97;;;5.83;;
19235;SDS011;9752;54.270;12.470;2023-12-20T12:31:33;8.93;;;6.30;;
19235;SDS011;9752;54.270;12.470;2023-12-20T12:36:35;8.27;;;5.97;;
19235;SDS011;9752;54.270;12.470;2023-12-20T12:41:37;5.83;;;5.33;;
19235;SDS011;9752;54.270;12.470;2023-12-20T12:46:40;6.27;;;5.50;;
19235;SDS011;9752;54.270;12.470;2023-12-20T12:51:42;13.43;;;6.67;;
19235;SDS011;9752;54.270;12.470;2023-12-20T12:56:44;6.67;;;5.33;;
19235;SDS011;9752;54.270;12.470;2023-12-20T13:01:49;7.80;;;5.73;;
19235;SDS011;9752;54.270;12.470;2023-12-20T13:06:50;11.60;;;5.83;;
19235;SDS011;9752;54.270;12.470;2023-12-20T13:11:52;12.53;;;7.23;;
19235;SDS011;9752;54.270;12.470;2023-12-20T13:16:55;16.93;;;6.27;;
19235;SDS011;9752;54.270;12.470;2023-12-20T13:21:57;9.37;;;5.77;;
19235;SDS011;9752;54.270;12.470;2023-12-20T13:26:59;18.07;;;6.10;;
19235;SDS011;9752;54.270;12.470;2023-12-20T13:32:02;16.40;;;6.10;;
19235;SDS011;9752;54.270;12.470;2023-12-20T13:37:04;18.50;;;7.73;;
19235;SDS011;9752;54.270;12.470;2023-12-20T13:42:06;13.30;;;6.80;;
19235;SDS011;9752;54.270;12.470;2023-12-20T13:47:09;12.50;;;6.23;;
19235;SDS011;9752;54.270;12.470;2023-12-20T13:52:11;14.10;;;6.77;;
19235;SDS011;9752;54.270;12.470;2023-12-20T13:57:12;10.43;;;6.67;;
19235;SDS011;9752;54.270;12.470;2023-12-20T14:02:15;16.97;;;7.50;;
19235;SDS011;9752;54.270;12.470;2023-12-20T14:07:17;17.70;;;8.00;;
19235;SDS011;9752;54.270;12.470;2023-12-20T14:12:19;16.63;;;7.70;;
19235;SDS011;9752;54.270;12.470;2023-12-20T14:17:22;17.43;;;7.93;;
19235;SDS011;9752;54.270;12.470;2023-12-20T14:22:24;21.30;;;8.77;;
19235;SDS011;9752;54.270;12.470;2023-12-20T14:27:26;19.37;;;9.10;;
19235;SDS011;9752;54.270;12.470;2023-12-20T14:32:29;18.67;;;8.07;;
19235;SDS011;9752;54.270;12.470;2023-12-20T14:37:30;16.13;;;7.97;;
19235;SDS011;9752;54.270;12.470;2023-12-20T14:42:32;19.23;;;8.23;;
19235;SDS011;9752;54.270;12.470;2023-12-20T14:47:36;22.67;;;9.43;;
19235;SDS011;9752;54.270;12.470;2023-12-20T14:52:38;13.77;;;8.57;;
19235;SDS011;9752;54.270;12.470;2023-12-20T14:57:39;18.07;;;9.67;;
19235;SDS011;9752;54.270;12.470;2023-12-20T15:02:42;21.77;;;11.67;;
19235;SDS011;9752;54.270;12.470;2023-12-20T15:07:44;25.87;;;9.70;;
19235;SDS011;9752;54.270;12.470;2023-12-20T15:12:47;17.93;;;10.53;;
19235;SDS011;9752;54.270;12.470;2023-12-20T15:17:50;22.60;;;10.00;;
19235;SDS011;9752;54.270;12.470;2023-12-20T15:22:51;22.20;;;10.37;;
19235;SDS011;9752;54.270;12.470;2023-12-20T15:27:55;18.67;;;8.80;;
19235;SDS011;9752;54.270;12.470;2023-12-20T15:32:58;24.57;;;10.43;;
19235;SDS011;9752;54.270;12.470;2023-12-20T15:38:00;21.10;;;10.57;;
19235;SDS011;9752;54.270;12.470;2023-12-20T15:43:02;28.47;;;10.77;;
19235;SDS011;9752;54.270;12.470;2023-12-20T15:48:06;16.93;;;9.67;;
19235;SDS011;9752;54.270;12.470;2023-12-20T15:53:09;21.50;;;9.33;;
19235;SDS011;9752;54.270;12.470;2023-12-20T15:58:11;22.83;;;10.37;;
19235;SDS011;9752;54.270;12.470;2023-12-20T16:03:14;23.47;;;10.70;;
19235;SDS011;9752;54.270;12.470;2023-12-20T16:08:16;18.03;;;10.47;;
19235;SDS011;9752;54.270;12.470;2023-12-20T16:13:17;23.10;;;8.23;;
19235;SDS011;9752;54.270;12.470;2023-12-20T16:18:21;19.30;;;9.17;;
19235;SDS011;9752;54.270;12.470;2023-12-20T16:23:23;24.70;;;10.00;;
19235;SDS011;9752;54.270;12.470;2023-12-20T16:28:25;30.10;;;10.23;;
19235;SDS011;9752;54.270;12.470;2023-12-20T16:33:28;26.23;;;10.27;;
19235;SDS011;9752;54.270;12.470;2023-12-20T16:38:30;27.33;;;11.03;;
19235;SDS011;9752;54.270;12.470;2023-12-20T16:43:31;20.27;;;11.00;;
19235;SDS011;9752;54.270;12.470;2023-12-20T16:48:34;21.70;;;11.57;;
19235;SDS011;9752;54.270;12.470;2023-12-20T16:53:36;27.20;;;11.40;;
19235;SDS011;9752;54.270;12.470;2023-12-20T16:58:38;21.03;;;11.97;;
19235;SDS011;9752;54.270;12.470;2023-12-20T17:03:41;22.67;;;11.07;;
19235;SDS011;9752;54.270;12.470;2023-12-20T17:08:42;23.17;;;12.10;;
19235;SDS011;9752;54.270;12.470;2023-12-20T17:13:44;21.77;;;11.50;;
19235;SDS011;9752;54.270;12.470;2023-12-20T17:18:47;19.80;;;10.07;;
19235;SDS011;9752;54.270;12.470;2023-12-20T17:23:49;15.30;;;10.00;;
19235;SDS011;9752;54.270;12.470;2023-12-20T17:28:51;21.53;;;10.17;;
19235;SDS011;9752;54.270;12.470;2023-12-20T17:33:54;17.00;;;11.03;;
19235;SDS011;9752;54.270;12.470;2023-12-20T17:38:56;20.77;;;11.67;;
19235;SDS011;9752;54.270;12.470;2023-12-20T17:43:57;25.47;;;11.00;;
19235;SDS011;9752;54.270;12.470;2023-12-20T17:49:00;23.50;;;11.60;;
19235;SDS011;9752;54.270;12.470;2023-12-20T17:54:02;34.50;;;12.03;;
19235;SDS011;9752;54.270;12.470;2023-12-20T17:59:04;22.27;;;13.00;;
19235;SDS011;9752;54.270;12.470;2023-12-20T18:04:07;22.23;;;11.43;;
19235;SDS011;9752;54.270;12.470;2023-12-20T18:09:09;25.90;;;12.30;;
19235;SDS011;9752;54.270;12.470;2023-12-20T18:14:10;18.90;;;11.43;;
19235;SDS011;9752;54.270;12.470;2023-12-20T18:19:14;25.43;;;13.17;;
19235;SDS011;9752;54.270;12.470;2023-12-20T18:24:17;17.83;;;12.27;;
19235;SDS011;9752;54.270;12.470;2023-12-20T18:29:18;26.63;;;12.10;;
19235;SDS011;9752;54.270;12.470;2023-12-20T18:34:21;23.63;;;12.03;;
19235;SDS011;9752;54.270;12.470;2023-12-20T18:39:24;29.87;;;12.73;;
19235;SDS011;9752;54.270;12.470;2023-12-20T18:44:25;25.70;;;12.17;;
19235;SDS011;9752;54.270;12.470;2023-12-20T18:49:28;25.00;;;11.43;;
19235;SDS011;9752;54.270;12.470;2023-12-20T18:54:30;22.77;;;10.57;;
19235;SDS011;9752;54.270;12.470;2023-12-20T18:59:32;21.83;;;11.93;;
19235;SDS011;9752;54.270;12.470;2023-12-20T19:04:35;19.90;;;10.70;;
19235;SDS011;9752;54.270;12.470;2023-12-20T19:09:36;15.57;;;10.93;;
19235;SDS011;9752;54.270;12.470;2023-12-20T19:14:38;34.53;;;12.60;;
19235;SDS011;9752;54.270;12.470;2023-12-20T19:19:41;33.10;;;11.77;;
19235;SDS011;9752;54.270;12.470;2023-12-20T19:24:43;29.63;;;10.10;;
19235;SDS011;9752;54.270;12.470;2023-12-20T19:29:44;32.30;;;11.13;;
19235;SDS011;9752;54.270;12.470;2023-12-20T19:34:47;28.47;;;11.47;;
19235;SDS011;9752;54.270;12.470;2023-12-20T19:39:50;25.97;;;11.53;;
19235;SDS011;9752;54.270;12.470;2023-12-20T19:44:52;26.20;;;10.13;;
19235;SDS011;9752;54.270;12.470;2023-12-20T19:49:55;22.37;;;10.73;;
19235;SDS011;9752;54.270;12.470;2023-12-20T19:54:56;24.20;;;9.63;;
19235;SDS011;9752;54.270;12.470;2023-12-20T19:59:59;22.20;;;10.40;;
19235;SDS011;9752;54.270;12.470;2023-12-20T20:05:02;28.80;;;10.73;;
19235;SDS011;9752;54.270;12.470;2023-12-20T20:10:07;20.10;;;9.90;;
19235;SDS011;9752;54.270;12.470;2023-12-20T20:15:09;18.30;;;8.93;;
19235;SDS011;9752;54.270;12.470;2023-12-20T20:20:12;19.50;;;9.37;;
19235;SDS011;9752;54.270;12.470;2023-12-20T20:25:14;19.40;;;9.80;;
19235;SDS011;9752;54.270;12.470;2023-12-20T20:30:15;21.70;;;10.20;;
19235;SDS011;9752;54.270;12.470;2023-12-20T20:35:18;26.00;;;9.53;;
19235;SDS011;9752;54.270;12.470;2023-12-20T20:40:20;17.13;;;9.50;;
19235;SDS011;9752;54.270;12.470;2023-12-20T20:45:22;18.80;;;8.37;;
19235;SDS011;9752;54.270;12.470;2023-12-20T20:50:25;17.83;;;8.37;;
19235;SDS011;9752;54.270;12.470;2023-12-20T20:55:27;21.57;;;8.33;;
19235;SDS011;9752;54.270;12.470;2023-12-20T21:00:29;20.20;;;8.00;;
19235;SDS011;9752;54.270;12.470;2023-12-20T21:05:33;23.90;;;8.03;;
19235;SDS011;9752;54.270;12.470;2023-12-20T21:10:35;14.53;;;6.70;;
19235;SDS011;9752;54.270;12.470;2023-12-20T21:15:36;16.00;;;7.03;;
19235;SDS011;9752;54.270;12.470;2023-12-20T21:20:39;17.50;;;7.23;;
19235;SDS011;9752;54.270;12.470;2023-12-20T21:25:41;16.77;;;7.03;;
19235;SDS011;9752;54.270;12.470;2023-12-20T21:30:43;14.17;;;6.60;;
19235;SDS011;9752;54.270;12.470;2023-12-20T21:35:46;16.57;;;8.07;;
19235;SDS011;9752;54.270;12.470;2023-12-20T21:40:47;12.37;;;5.93;;
19235;SDS011;9752;54.270;12.470;2023-12-20T21:45:49;12.30;;;6.27;;
19235;SDS011;9752;54.270;12.470;2023-12-20T21:50:52;17.47;;;6.17;;
19235;SDS011;9752;54.270;12.470;2023-12-20T21:55:54;19.47;;;7.13;;
19235;SDS011;9752;54.270;12.470;2023-12-20T22:00:55;9.80;;;5.93;;
19235;SDS011;9752;54.270;12.470;2023-12-20T22:05:59;10.83;;;5.83;;
19235;SDS011;9752;54.270;12.470;2023-12-20T22:11:01;11.27;;;6.17;;
19235;SDS011;9752;54.270;12.470;2023-12-20T22:16:03;16.63;;;7.13;;
19235;SDS011;9752;54.270;12.470;2023-12-20T22:21:07;10.77;;;5.67;;
19235;SDS011;9752;54.270;12.470;2023-12-20T22:26:10;9.03;;;5.73;;
19235;SDS011;9752;54.270;12.470;2023-12-20T22:31:12;11.53;;;6.40;;
19235;SDS011;9752;54.270;12.470;2023-12-20T22:36:15;11.80;;;6.83;;
19235;SDS011;9752;54.270;12.470;2023-12-20T22:41:18;18.63;;;7.37;;
19235;SDS011;9752;54.270;12.470;2023-12-20T22:46:20;13.87;;;6.40;;
19235;SDS011;9752;54.270;12.470;2023-12-20T22:51:23;12.77;;;6.47;;
19235;SDS011;9752;54.270;12.470;2023-12-20T22:56:25;11.03;;;6.93;;
19235;SDS011;9752;54.270;12.470;2023-12-20T23:01:27;8.30;;;6.17;;
19235;SDS011;9752;54.270;12.470;2023-12-20T23:12:48;17.73;;;7.03;;
19235;SDS011;9752;54.270;12.470;2023-12-20T23:17:50;10.27;;;6.90;;
19235;SDS011;9752;54.270;12.470;2023-12-20T23:22:53;10.90;;;6.43;;
19235;SDS011;9752;54.270;12.470;2023-12-20T23:27:56;9.17;;;7.40;;
19235;SDS011;9752;54.270;12.470;2023-12-20T23:32:58;16.03;;;7.97;;
19235;SDS011;9752;54.270;12.470;2023-12-20T23:38:00;12.30;;;7.30;;
19235;SDS011;9752;54.270;12.470;2023-12-20T23:43:03;19.23;;;8.60;;
19235;SDS011;9752;54.270;12.470;2023-12-20T23:48:05;12.13;;;7.10;;
19235;SDS011;9752;54.270;12.470;2023-12-20T23:53:06;15.30;;;7.23;;
19235;SDS011;9752;54.270;12.470;2023-12-20T23:58:09;10.20;;;7.07;;
